Página principal
METAR-TAF:

METAR-TAF

Aeroportos :

Salt Lake City, Utah, Estados Unidos

Aeroporto Internacional de Salt Lake City

latitude: 40-46-41N, longitude: 111-58-10W, altura: 1288 m

Observação actual do tempo

O boletim foi feito há 10 minutos, às 20:54 UTC
Vento 5 kt com direcção variável
Temperatura 19°C
Humidade 26%
Pressão 1022 hPa
Visibilidade: 16.1 km
Poucas nuvensa uma altura de 9000 ft

METAR: KSLC 212054Z VRB05KT 10SM FEW090 19/M01 A3017 RMK AO2 SLP190 T01891006 58005

Hora: 15:04 (21:04 UTC)

Previsão

O boletim foi feito há 3 horas e 44 minutos, às 17:20 UTC
Previsão válida de 21 às 18 UTC a 22 às 24 UTC
Vento 4 kt de noroeste
Visibilidade: 10 km
Poucas nuvensa uma altura de 8000 ft
A partir de 21 às 1900 UTC
Vento 7 kt de noroeste
Visibilidade: 10 km
Poucas nuvensa uma altura de 8000 ft
A partir de 22 às 0300 UTC
Vento 6 kt de su-sudeste
Visibilidade: 10 km
Céu limpo

TAF: KSLC 211720Z 2118/2224 32004KT P6SM FEW080 FM211900 32007KT P6SM FEW080 FM220300 15006KT P6SM SKC

Observações e previsões do tempo de mais de 4000 aeroportos (mensagens METAR e TAF).

As estações disponíveis são os pontos amarelos e vermelhos sobre o mapa.

Mova o rato sobre o mapa para ver o nome da estação.

Depois clique no ponto para visualizar as observações e previsões meteorológicas.

Para alterar o mapa : clique nos botões verdes com uma cruz preta para aumentar o zoom; no botão verde com uma pitada de zoom; ou nas setas verdes para mapas adjacentes.


METAR-TAF: